<?xml version="1.0"?>
<gpx xmlns="http://www.topografix.com/GPX/1/1" xmlns:xsi="http://www.w3.org/2001/XMLSchema-instance" xmlns:wptx1="http://www.garmin.com/xmlschemas/WaypointExtension/v1" xmlns:gpxtrx="http://www.garmin.com/xmlschemas/GpxExtensions/v3" xmlns:gpxtpx="http://www.garmin.com/xmlschemas/TrackPointExtension/v1" xmlns:gpxx="http://www.garmin.com/xmlschemas/GpxExtensions/v3" xmlns:trp="http://www.garmin.com/xmlschemas/TripExtensions/v1" xmlns:adv="http://www.garmin.com/xmlschemas/AdventuresExtensions/v1" xmlns:prs="http://www.garmin.com/xmlschemas/PressureExtension/v1" xmlns:tmd="http://www.garmin.com/xmlschemas/TripMetaDataExtensions/v1" xmlns:vptm="http://www.garmin.com/xmlschemas/ViaPointTransportationModeExtensions/v1" xmlns:ctx="http://www.garmin.com/xmlschemas/CreationTimeExtension/v1" xmlns:gpxacc="http://www.garmin.com/xmlschemas/AccelerationExtension/v1" xmlns:gpxpx="http://www.garmin.com/xmlschemas/PowerExtension/v1" xmlns:vidx1="http://www.garmin.com/xmlschemas/VideoExtension/v1" creator="Garmin Desktop App" version="1.1" xsi:schemaLocation="http://www.topografix.com/GPX/1/1 http://www.topografix.com/GPX/1/1/gpx.xsd http://www.garmin.com/xmlschemas/WaypointExtension/v1 http://www8.garmin.com/xmlschemas/WaypointExtensionv1.xsd http://www.garmin.com/xmlschemas/TrackPointExtension/v1 http://www.garmin.com/xmlschemas/TrackPointExtensionv1.xsd http://www.garmin.com/xmlschemas/GpxExtensions/v3 http://www8.garmin.com/xmlschemas/GpxExtensionsv3.xsd http://www.garmin.com/xmlschemas/ActivityExtension/v1 http://www8.garmin.com/xmlschemas/ActivityExtensionv1.xsd http://www.garmin.com/xmlschemas/AdventuresExtensions/v1 http://www8.garmin.com/xmlschemas/AdventuresExtensionv1.xsd http://www.garmin.com/xmlschemas/PressureExtension/v1 http://www.garmin.com/xmlschemas/PressureExtensionv1.xsd http://www.garmin.com/xmlschemas/TripExtensions/v1 http://www.garmin.com/xmlschemas/TripExtensionsv1.xsd http://www.garmin.com/xmlschemas/TripMetaDataExtensions/v1 http://www.garmin.com/xmlschemas/TripMetaDataExtensionsv1.xsd http://www.garmin.com/xmlschemas/ViaPointTransportationModeExtensions/v1 http://www.garmin.com/xmlschemas/ViaPointTransportationModeExtensionsv1.xsd http://www.garmin.com/xmlschemas/CreationTimeExtension/v1 http://www.garmin.com/xmlschemas/CreationTimeExtensionsv1.xsd http://www.garmin.com/xmlschemas/AccelerationExtension/v1 http://www.garmin.com/xmlschemas/AccelerationExtensionv1.xsd http://www.garmin.com/xmlschemas/PowerExtension/v1 http://www.garmin.com/xmlschemas/PowerExtensionv1.xsd http://www.garmin.com/xmlschemas/VideoExtension/v1 http://www.garmin.com/xmlschemas/VideoExtensionv1.xsd">

  <metadata>
    <link href="http://www.garmin.com">
      <text>Garmin International</text>
    </link>
    <time>2018-02-26T07:33:39Z</time>
    <bounds maxlat="12.934429105371237" maxlon="101.072859456762671" minlat="12.891710232943296" minlon="101.018575737252831"/>
  </metadata>

  <wpt lat="12.923930520191789" lon="101.018575737252831">
    <ele>131</ele>
    <name>Grand Valley Hotel</name>
    <cmt>25-MAY-13 12:59:24</cmt>
    <desc>25-MAY-13 12:59:24</desc>
    <sym>Lodging</sym>
    <type>user</type>
    <extensions>
      <gpxx:WaypointExtension>
        <gpxx:DisplayMode>SymbolOnly</gpxx:DisplayMode>
      </gpxx:WaypointExtension>
      <wptx1:WaypointExtension>
        <wptx1:DisplayMode>SymbolOnly</wptx1:DisplayMode>
      </wptx1:WaypointExtension>
    </extensions>
  </wpt>

  <wpt lat="12.892855033278465" lon="101.055484358221292">
    <ele>123</ele>
    <name>Water Sun</name>
    <cmt>26-MAY-13 11:48:02</cmt>
    <desc>26-MAY-13 11:48:02</desc>
    <sym>Drinking Water</sym>
    <type>user</type>
    <extensions>
      <gpxx:WaypointExtension>
        <gpxx:DisplayMode>SymbolOnly</gpxx:DisplayMode>
      </gpxx:WaypointExtension>
      <wptx1:WaypointExtension>
        <wptx1:DisplayMode>SymbolOnly</wptx1:DisplayMode>
      </wptx1:WaypointExtension>
    </extensions>
  </wpt>

  <trk>
    <name>Sunday 001</name>
    <extensions>
      <gpxx:TrackExtension>
        <gpxx:DisplayColor>Green</gpxx:DisplayColor>
      </gpxx:TrackExtension>
    </extensions>
    <trkseg>
      <trkpt lat="12.923966981470585" lon="101.018780171871185">
        <ele>131.837890625</ele>
        <time>2013-05-26T03:01:06Z</time>
      </trkpt>
      <trkpt lat="12.923599518835545" lon="101.019479809328914">
        <ele>129.4346923828125</ele>
        <time>2013-05-26T03:01:53Z</time>
      </trkpt>
      <trkpt lat="12.923192577436566" lon="101.019402863457799">
        <ele>126.5506591796875</ele>
        <time>2013-05-26T03:02:07Z</time>
      </trkpt>
      <trkpt lat="12.924089692533016" lon="101.022043749690056">
        <ele>131.837890625</ele>
        <time>2013-05-26T03:03:45Z</time>
      </trkpt>
      <trkpt lat="12.924378868192434" lon="101.022664178162813">
        <ele>135.2025146484375</ele>
        <time>2013-05-26T03:04:12Z</time>
      </trkpt>
      <trkpt lat="12.925590220838785" lon="101.022466029971838">
        <ele>142.4124755859375</ele>
        <time>2013-05-26T03:05:49Z</time>
      </trkpt>
      <trkpt lat="12.925741849467158" lon="101.022873474285007">
        <ele>141.4510498046875</ele>
        <time>2013-05-26T03:06:26Z</time>
      </trkpt>
      <trkpt lat="12.925255782902241" lon="101.023155525326729">
        <ele>138.5672607421875</ele>
        <time>2013-05-26T03:06:47Z</time>
      </trkpt>
      <trkpt lat="12.923251166939735" lon="101.023113448172808">
        <ele>137.125244140625</ele>
        <time>2013-05-26T03:07:43Z</time>
      </trkpt>
      <trkpt lat="12.922907508909702" lon="101.023054858669639">
        <ele>136.1639404296875</ele>
        <time>2013-05-26T03:07:56Z</time>
      </trkpt>
      <trkpt lat="12.921868152916431" lon="101.022874563932419">
        <ele>130.39599609375</ele>
        <time>2013-05-26T03:08:32Z</time>
      </trkpt>
      <trkpt lat="12.921232050284743" lon="101.023464063182473">
        <ele>124.1473388671875</ele>
        <time>2013-05-26T03:09:40Z</time>
      </trkpt>
      <trkpt lat="12.923302128911018" lon="101.023831274360418">
        <ele>134.721923828125</ele>
        <time>2013-05-26T03:11:23Z</time>
      </trkpt>
      <trkpt lat="12.924608113244176" lon="101.023860024288297">
        <ele>134.721923828125</ele>
        <time>2013-05-26T03:12:03Z</time>
      </trkpt>
      <trkpt lat="12.924697967246175" lon="101.024365453049541">
        <ele>133.760498046875</ele>
        <time>2013-05-26T03:12:19Z</time>
      </trkpt>
      <trkpt lat="12.925255196169019" lon="101.024524625390768">
        <ele>134.2412109375</ele>
        <time>2013-05-26T03:12:36Z</time>
      </trkpt>
      <trkpt lat="12.926095146685839" lon="101.02515796199441">
        <ele>134.721923828125</ele>
        <time>2013-05-26T03:13:04Z</time>
      </trkpt>
      <trkpt lat="12.925302386283875" lon="101.025931863114238">
        <ele>140.0091552734375</ele>
        <time>2013-05-26T03:13:49Z</time>
      </trkpt>
      <trkpt lat="12.925291238352656" lon="101.02723223157227">
        <ele>142.89306640625</ele>
        <time>2013-05-26T03:14:29Z</time>
      </trkpt>
      <trkpt lat="12.924728812649846" lon="101.028606863692403">
        <ele>141.9317626953125</ele>
        <time>2013-05-26T03:15:06Z</time>
      </trkpt>
      <trkpt lat="12.924594702199101" lon="101.032226504758">
        <ele>147.218994140625</ele>
        <time>2013-05-26T03:17:15Z</time>
      </trkpt>
      <trkpt lat="12.924370905384421" lon="101.032669823616743">
        <ele>147.69970703125</ele>
        <time>2013-05-26T03:17:35Z</time>
      </trkpt>
      <trkpt lat="12.924279626458883" lon="101.033383039757609">
        <ele>151.064208984375</ele>
        <time>2013-05-26T03:18:12Z</time>
      </trkpt>
      <trkpt lat="12.924341484904289" lon="101.034413678571582">
        <ele>146.2578125</ele>
        <time>2013-05-26T03:18:34Z</time>
      </trkpt>
      <trkpt lat="12.924030432477593" lon="101.037766356021166">
        <ele>142.4124755859375</ele>
        <time>2013-05-26T03:19:35Z</time>
      </trkpt>
      <trkpt lat="12.926770392805338" lon="101.038591051474214">
        <ele>152.0257568359375</ele>
        <time>2013-05-26T03:22:49Z</time>
      </trkpt>
      <trkpt lat="12.926631337031722" lon="101.03928130120039">
        <ele>153.4676513671875</ele>
        <time>2013-05-26T03:23:11Z</time>
      </trkpt>
      <trkpt lat="12.926528407260776" lon="101.039920086041093">
        <ele>152.9869384765625</ele>
        <time>2013-05-26T03:23:30Z</time>
      </trkpt>
      <trkpt lat="12.926879106089473" lon="101.04036265052855">
        <ele>150.10302734375</ele>
        <time>2013-05-26T03:23:45Z</time>
      </trkpt>
      <trkpt lat="12.927237935364246" lon="101.042663399130106">
        <ele>149.622314453125</ele>
        <time>2013-05-26T03:24:48Z</time>
      </trkpt>
      <trkpt lat="12.927570194005966" lon="101.044668098911643">
        <ele>137.125244140625</ele>
        <time>2013-05-26T03:26:19Z</time>
      </trkpt>
      <trkpt lat="12.929030153900385" lon="101.044730292633176">
        <ele>131.837890625</ele>
        <time>2013-05-26T03:27:11Z</time>
      </trkpt>
      <trkpt lat="12.929269708693027" lon="101.04487462900579">
        <ele>129.915283203125</ele>
        <time>2013-05-26T03:27:17Z</time>
      </trkpt>
      <trkpt lat="12.930661523714662" lon="101.046445062384009">
        <ele>122.7054443359375</ele>
        <time>2013-05-26T03:28:06Z</time>
      </trkpt>
      <trkpt lat="12.930725980550051" lon="101.046483032405376">
        <ele>122.2247314453125</ele>
        <time>2013-05-26T03:28:16Z</time>
      </trkpt>
      <trkpt lat="12.931259069591761" lon="101.046567857265472">
        <ele>123.1861572265625</ele>
        <time>2013-05-26T03:28:39Z</time>
      </trkpt>
      <trkpt lat="12.931754356250167" lon="101.046021105721593">
        <ele>122.2247314453125</ele>
        <time>2013-05-26T03:29:04Z</time>
      </trkpt>
      <trkpt lat="12.9320012871176" lon="101.046222103759646">
        <ele>121.2635498046875</ele>
        <time>2013-05-26T03:29:19Z</time>
      </trkpt>
      <trkpt lat="12.932167751714587" lon="101.04605421423912">
        <ele>122.7054443359375</ele>
        <time>2013-05-26T03:29:40Z</time>
      </trkpt>
      <trkpt lat="12.932168673723936" lon="101.046043233945966">
        <ele>122.7054443359375</ele>
        <time>2013-05-26T03:30:34Z</time>
      </trkpt>
      <trkpt lat="12.932163728401065" lon="101.046054381877184">
        <ele>124.6280517578125</ele>
        <time>2013-05-26T03:32:28Z</time>
      </trkpt>
      <trkpt lat="12.931863991543651" lon="101.046401560306549">
        <ele>126.0699462890625</ele>
        <time>2013-05-26T03:32:48Z</time>
      </trkpt>
      <trkpt lat="12.931741448119283" lon="101.046610940247774">
        <ele>128.9541015625</ele>
        <time>2013-05-26T03:33:16Z</time>
      </trkpt>
      <trkpt lat="12.931846221908927" lon="101.046587806195021">
        <ele>125.58935546875</ele>
        <time>2013-05-26T03:36:48Z</time>
      </trkpt>
      <trkpt lat="12.932414934039116" lon="101.047188118100166">
        <ele>120.7828369140625</ele>
        <time>2013-05-26T03:37:08Z</time>
      </trkpt>
      <trkpt lat="12.932872669771314" lon="101.047452818602324">
        <ele>119.8214111328125</ele>
        <time>2013-05-26T03:37:22Z</time>
      </trkpt>
      <trkpt lat="12.93367431499064" lon="101.047793794423342">
        <ele>117.418212890625</ele>
        <time>2013-05-26T03:37:42Z</time>
      </trkpt>
      <trkpt lat="12.934364145621657" lon="101.047910135239363">
        <ele>117.418212890625</ele>
        <time>2013-05-26T03:38:05Z</time>
      </trkpt>
      <trkpt lat="12.934426423162222" lon="101.048029744997621">
        <ele>120.3021240234375</ele>
        <time>2013-05-26T03:39:28Z</time>
      </trkpt>
      <trkpt lat="12.934428937733173" lon="101.04801214300096">
        <ele>126.5506591796875</ele>
        <time>2013-05-26T03:42:57Z</time>
      </trkpt>
      <trkpt lat="12.934429105371237" lon="101.047991188243032">
        <ele>127.0313720703125</ele>
        <time>2013-05-26T03:43:58Z</time>
      </trkpt>
      <trkpt lat="12.934378478676081" lon="101.04785380885005">
        <ele>127.511962890625</ele>
        <time>2013-05-26T03:44:08Z</time>
      </trkpt>
      <trkpt lat="12.934331875294447" lon="101.047828495502472">
        <ele>127.9925537109375</ele>
        <time>2013-05-26T03:44:11Z</time>
      </trkpt>
      <trkpt lat="12.933528805151582" lon="101.04784308001399">
        <ele>129.915283203125</ele>
        <time>2013-05-26T03:44:39Z</time>
      </trkpt>
      <trkpt lat="12.931516394019127" lon="101.048342222347856">
        <ele>129.915283203125</ele>
        <time>2013-05-26T03:45:42Z</time>
      </trkpt>
      <trkpt lat="12.931106183677912" lon="101.048961393535137">
        <ele>127.9925537109375</ele>
        <time>2013-05-26T03:46:02Z</time>
      </trkpt>
      <trkpt lat="12.930544009432197" lon="101.049410998821259">
        <ele>129.915283203125</ele>
        <time>2013-05-26T03:46:23Z</time>
      </trkpt>
      <trkpt lat="12.928120382130146" lon="101.049788519740105">
        <ele>138.0865478515625</ele>
        <time>2013-05-26T03:48:48Z</time>
      </trkpt>
      <trkpt lat="12.928138319402933" lon="101.049875691533089">
        <ele>141.4510498046875</ele>
        <time>2013-05-26T03:49:08Z</time>
      </trkpt>
      <trkpt lat="12.928361529484391" lon="101.050473069772124">
        <ele>147.218994140625</ele>
        <time>2013-05-26T03:50:14Z</time>
      </trkpt>
      <trkpt lat="12.928340407088399" lon="101.051346296444535">
        <ele>146.7384033203125</ele>
        <time>2013-05-26T03:50:59Z</time>
      </trkpt>
      <trkpt lat="12.928199758753181" lon="101.05272252112627">
        <ele>144.335205078125</ele>
        <time>2013-05-26T03:51:43Z</time>
      </trkpt>
      <trkpt lat="12.928132871165872" lon="101.054183905944228">
        <ele>136.6446533203125</ele>
        <time>2013-05-26T03:52:39Z</time>
      </trkpt>
      <trkpt lat="12.928046369925141" lon="101.05446595698595">
        <ele>137.6058349609375</ele>
        <time>2013-05-26T03:53:03Z</time>
      </trkpt>
      <trkpt lat="12.926499154418707" lon="101.056449115276337">
        <ele>137.6058349609375</ele>
        <time>2013-05-26T03:54:32Z</time>
      </trkpt>
      <trkpt lat="12.926904000341892" lon="101.056869132444263">
        <ele>135.2025146484375</ele>
        <time>2013-05-26T03:54:51Z</time>
      </trkpt>
      <trkpt lat="12.926413994282484" lon="101.057556616142392">
        <ele>135.68310546875</ele>
        <time>2013-05-26T03:55:16Z</time>
      </trkpt>
      <trkpt lat="12.925202054902911" lon="101.05899847112596">
        <ele>130.876708984375</ele>
        <time>2013-05-26T03:56:20Z</time>
      </trkpt>
      <trkpt lat="12.926919339224696" lon="101.060072360560298">
        <ele>132.318603515625</ele>
        <time>2013-05-26T03:57:42Z</time>
      </trkpt>
      <trkpt lat="12.927706399932504" lon="101.060409983620048">
        <ele>122.2247314453125</ele>
        <time>2013-05-26T03:59:11Z</time>
      </trkpt>
      <trkpt lat="12.928152484819293" lon="101.060129944235086">
        <ele>133.760498046875</ele>
        <time>2013-05-26T04:00:30Z</time>
      </trkpt>
      <trkpt lat="12.928234795108438" lon="101.060098260641098">
        <ele>131.3572998046875</ele>
        <time>2013-05-26T04:00:55Z</time>
      </trkpt>
      <trkpt lat="12.928684987127781" lon="101.059647900983691">
        <ele>134.721923828125</ele>
        <time>2013-05-26T04:01:42Z</time>
      </trkpt>
      <trkpt lat="12.928179055452347" lon="101.060174703598022">
        <ele>130.876708984375</ele>
        <time>2013-05-26T04:05:32Z</time>
      </trkpt>
      <trkpt lat="12.92894097045064" lon="101.0609495267272">
        <ele>131.837890625</ele>
        <time>2013-05-26T04:06:41Z</time>
      </trkpt>
      <trkpt lat="12.928931331261992" lon="101.061012642458081">
        <ele>131.3572998046875</ele>
        <time>2013-05-26T04:06:45Z</time>
      </trkpt>
      <trkpt lat="12.928417352959514" lon="101.061951499432325">
        <ele>134.2412109375</ele>
        <time>2013-05-26T04:07:41Z</time>
      </trkpt>
      <trkpt lat="12.928205290809274" lon="101.062418203800917">
        <ele>131.3572998046875</ele>
        <time>2013-05-26T04:08:02Z</time>
      </trkpt>
      <trkpt lat="12.92807025834918" lon="101.063310205936432">
        <ele>130.39599609375</ele>
        <time>2013-05-26T04:08:47Z</time>
      </trkpt>
      <trkpt lat="12.927056718617678" lon="101.063475832343102">
        <ele>130.876708984375</ele>
        <time>2013-05-26T04:09:27Z</time>
      </trkpt>
      <trkpt lat="12.926287679001689" lon="101.063425373286009">
        <ele>139.5284423828125</ele>
        <time>2013-05-26T04:09:57Z</time>
      </trkpt>
      <trkpt lat="12.92560949921608" lon="101.063710777089">
        <ele>141.4510498046875</ele>
        <time>2013-05-26T04:10:15Z</time>
      </trkpt>
      <trkpt lat="12.923754751682281" lon="101.064589116722345">
        <ele>129.4346923828125</ele>
        <time>2013-05-26T04:11:05Z</time>
      </trkpt>
      <trkpt lat="12.922116424888372" lon="101.066209254786372">
        <ele>115.9761962890625</ele>
        <time>2013-05-26T04:12:29Z</time>
      </trkpt>
      <trkpt lat="12.923971675336361" lon="101.068126447498798">
        <ele>119.3408203125</ele>
        <time>2013-05-26T04:13:56Z</time>
      </trkpt>
      <trkpt lat="12.923169611021876" lon="101.068853158503771">
        <ele>117.8988037109375</ele>
        <time>2013-05-26T04:14:36Z</time>
      </trkpt>
      <trkpt lat="12.922541555017233" lon="101.069732755422592">
        <ele>118.860107421875</ele>
        <time>2013-05-26T04:15:11Z</time>
      </trkpt>
      <trkpt lat="12.920990400016308" lon="101.070624506101012">
        <ele>106.363037109375</ele>
        <time>2013-05-26T04:16:26Z</time>
      </trkpt>
      <trkpt lat="12.921511335298419" lon="101.071810713037848">
        <ele>106.8436279296875</ele>
        <time>2013-05-26T04:17:19Z</time>
      </trkpt>
      <trkpt lat="12.920818738639355" lon="101.072082035243511">
        <ele>102.998291015625</ele>
        <time>2013-05-26T04:17:52Z</time>
      </trkpt>
      <trkpt lat="12.919913912191987" lon="101.072844620794058">
        <ele>102.998291015625</ele>
        <time>2013-05-26T04:20:07Z</time>
      </trkpt>
      <trkpt lat="12.91980997659266" lon="101.072859456762671">
        <ele>102.037109375</ele>
        <time>2013-05-26T04:20:20Z</time>
      </trkpt>
      <trkpt lat="12.919390965253115" lon="101.072629792615771">
        <ele>104.4404296875</ele>
        <time>2013-05-26T04:20:55Z</time>
      </trkpt>
      <trkpt lat="12.918040305376053" lon="101.071119708940387">
        <ele>108.28564453125</ele>
        <time>2013-05-26T04:21:53Z</time>
      </trkpt>
      <trkpt lat="12.917723134160042" lon="101.070464830845594">
        <ele>107.3243408203125</ele>
        <time>2013-05-26T04:22:10Z</time>
      </trkpt>
      <trkpt lat="12.917618779465556" lon="101.069148704409599">
        <ele>103.959716796875</ele>
        <time>2013-05-26T04:22:39Z</time>
      </trkpt>
      <trkpt lat="12.916846973821521" lon="101.067796535789967">
        <ele>106.363037109375</ele>
        <time>2013-05-26T04:23:23Z</time>
      </trkpt>
      <trkpt lat="12.916300473734736" lon="101.066953986883163">
        <ele>105.4017333984375</ele>
        <time>2013-05-26T04:23:49Z</time>
      </trkpt>
      <trkpt lat="12.915117368102074" lon="101.068531544879079">
        <ele>115.014892578125</ele>
        <time>2013-05-26T04:25:11Z</time>
      </trkpt>
      <trkpt lat="12.914729034528136" lon="101.069002607837319">
        <ele>115.9761962890625</ele>
        <time>2013-05-26T04:25:34Z</time>
      </trkpt>
      <trkpt lat="12.913289861753583" lon="101.068784175440669">
        <ele>120.7828369140625</ele>
        <time>2013-05-26T04:26:44Z</time>
      </trkpt>
      <trkpt lat="12.912051016464829" lon="101.068559708073735">
        <ele>119.3408203125</ele>
        <time>2013-05-26T04:27:25Z</time>
      </trkpt>
      <trkpt lat="12.909562513232231" lon="101.06943603605032">
        <ele>122.2247314453125</ele>
        <time>2013-05-26T04:28:19Z</time>
      </trkpt>
      <trkpt lat="12.908029044046998" lon="101.069579869508743">
        <ele>120.7828369140625</ele>
        <time>2013-05-26T04:28:56Z</time>
      </trkpt>
      <trkpt lat="12.907323706895113" lon="101.069448357447982">
        <ele>120.7828369140625</ele>
        <time>2013-05-26T04:29:14Z</time>
      </trkpt>
      <trkpt lat="12.905155979096889" lon="101.068499442189932">
        <ele>131.837890625</ele>
        <time>2013-05-26T04:31:55Z</time>
      </trkpt>
      <trkpt lat="12.904789773747325" lon="101.068260977044702">
        <ele>133.2799072265625</ele>
        <time>2013-05-26T04:32:16Z</time>
      </trkpt>
      <trkpt lat="12.904577627778053" lon="101.067975824698806">
        <ele>135.68310546875</ele>
        <time>2013-05-26T04:32:53Z</time>
      </trkpt>
      <trkpt lat="12.905043661594391" lon="101.0666464548558">
        <ele>137.6058349609375</ele>
        <time>2013-05-26T04:33:40Z</time>
      </trkpt>
      <trkpt lat="12.904674103483558" lon="101.066056871786714">
        <ele>124.1473388671875</ele>
        <time>2013-05-26T04:34:01Z</time>
      </trkpt>
      <trkpt lat="12.904281076043844" lon="101.065714471042156">
        <ele>115.9761962890625</ele>
        <time>2013-05-26T04:34:16Z</time>
      </trkpt>
      <trkpt lat="12.903724350035191" lon="101.065464019775391">
        <ele>112.1309814453125</ele>
        <time>2013-05-26T04:34:50Z</time>
      </trkpt>
      <trkpt lat="12.903537768870592" lon="101.06521038338542">
        <ele>112.611572265625</ele>
        <time>2013-05-26T04:35:04Z</time>
      </trkpt>
      <trkpt lat="12.903409190475941" lon="101.064768405631185">
        <ele>114.0535888671875</ele>
        <time>2013-05-26T04:35:19Z</time>
      </trkpt>
      <trkpt lat="12.903621504083276" lon="101.064269514754415">
        <ele>114.5341796875</ele>
        <time>2013-05-26T04:35:33Z</time>
      </trkpt>
      <trkpt lat="12.903780844062567" lon="101.063729720190167">
        <ele>113.572998046875</ele>
        <time>2013-05-26T04:35:48Z</time>
      </trkpt>
      <trkpt lat="12.903669867664576" lon="101.063371812924743">
        <ele>114.0535888671875</ele>
        <time>2013-05-26T04:36:02Z</time>
      </trkpt>
      <trkpt lat="12.902854392305017" lon="101.062551559880376">
        <ele>118.37939453125</ele>
        <time>2013-05-26T04:36:50Z</time>
      </trkpt>
      <trkpt lat="12.902759844437242" lon="101.062261881306767">
        <ele>117.418212890625</ele>
        <time>2013-05-26T04:37:04Z</time>
      </trkpt>
      <trkpt lat="12.901628371328115" lon="101.060626907274127">
        <ele>116.9375</ele>
        <time>2013-05-26T04:38:20Z</time>
      </trkpt>
      <trkpt lat="12.901288317516446" lon="101.060282327234745">
        <ele>116.456787109375</ele>
        <time>2013-05-26T04:38:36Z</time>
      </trkpt>
      <trkpt lat="12.900357004255056" lon="101.059690313413739">
        <ele>115.49560546875</ele>
        <time>2013-05-26T04:39:09Z</time>
      </trkpt>
      <trkpt lat="12.898776847869158" lon="101.059213886037469">
        <ele>119.3408203125</ele>
        <time>2013-05-26T04:40:41Z</time>
      </trkpt>
      <trkpt lat="12.89813831448555" lon="101.058690771460533">
        <ele>120.7828369140625</ele>
        <time>2013-05-26T04:41:16Z</time>
      </trkpt>
      <trkpt lat="12.89713173173368" lon="101.057972526177764">
        <ele>122.2247314453125</ele>
        <time>2013-05-26T04:42:44Z</time>
      </trkpt>
      <trkpt lat="12.895199451595545" lon="101.058600079268217">
        <ele>125.58935546875</ele>
        <time>2013-05-26T04:45:02Z</time>
      </trkpt>
      <trkpt lat="12.893903525546193" lon="101.058324230834842">
        <ele>127.9925537109375</ele>
        <time>2013-05-26T04:45:59Z</time>
      </trkpt>
      <trkpt lat="12.892805244773626" lon="101.057887533679605">
        <ele>130.39599609375</ele>
        <time>2013-05-26T04:46:37Z</time>
      </trkpt>
      <trkpt lat="12.892949664965272" lon="101.057457877323031">
        <ele>127.9925537109375</ele>
        <time>2013-05-26T04:46:52Z</time>
      </trkpt>
      <trkpt lat="12.892994424328208" lon="101.056141750887036">
        <ele>122.2247314453125</ele>
        <time>2013-05-26T04:47:15Z</time>
      </trkpt>
      <trkpt lat="12.892871042713523" lon="101.055454686284065">
        <ele>123.1861572265625</ele>
        <time>2013-05-26T04:48:17Z</time>
      </trkpt>
      <trkpt lat="12.892439709976315" lon="101.054718168452382">
        <ele>120.7828369140625</ele>
        <time>2013-05-26T04:51:02Z</time>
      </trkpt>
      <trkpt lat="12.891710232943296" lon="101.053925156593323">
        <ele>120.3021240234375</ele>
        <time>2013-05-26T04:51:22Z</time>
      </trkpt>
      <trkpt lat="12.891733031719923" lon="101.052956627681851">
        <ele>117.8988037109375</ele>
        <time>2013-05-26T04:51:38Z</time>
      </trkpt>
      <trkpt lat="12.891821125522256" lon="101.052630571648479">
        <ele>117.8988037109375</ele>
        <time>2013-05-26T04:51:46Z</time>
      </trkpt>
      <trkpt lat="12.892063613981009" lon="101.052472405135632">
        <ele>119.8214111328125</ele>
        <time>2013-05-26T04:52:00Z</time>
      </trkpt>
      <trkpt lat="12.892668871209025" lon="101.05213763192296">
        <ele>121.2635498046875</ele>
        <time>2013-05-26T04:52:52Z</time>
      </trkpt>
      <trkpt lat="12.892913706600666" lon="101.051459200680256">
        <ele>123.1861572265625</ele>
        <time>2013-05-26T04:53:25Z</time>
      </trkpt>
      <trkpt lat="12.894376013427973" lon="101.050679683685303">
        <ele>132.79931640625</ele>
        <time>2013-05-26T04:54:50Z</time>
      </trkpt>
      <trkpt lat="12.8951948415488" lon="101.052632415667176">
        <ele>126.0699462890625</ele>
        <time>2013-05-26T04:55:45Z</time>
      </trkpt>
      <trkpt lat="12.895905710756779" lon="101.052603917196393">
        <ele>128.473388671875</ele>
        <time>2013-05-26T04:57:13Z</time>
      </trkpt>
      <trkpt lat="12.895749220624566" lon="101.053916523233056">
        <ele>120.7828369140625</ele>
        <time>2013-05-26T04:57:51Z</time>
      </trkpt>
      <trkpt lat="12.895858688279986" lon="101.054052896797657">
        <ele>120.3021240234375</ele>
        <time>2013-05-26T04:57:56Z</time>
      </trkpt>
      <trkpt lat="12.896507531404495" lon="101.054248614236712">
        <ele>119.3408203125</ele>
        <time>2013-05-26T04:58:13Z</time>
      </trkpt>
      <trkpt lat="12.89747966453433" lon="101.054031690582633">
        <ele>121.744140625</ele>
        <time>2013-05-26T04:58:43Z</time>
      </trkpt>
      <trkpt lat="12.898233700543642" lon="101.054347353056073">
        <ele>120.7828369140625</ele>
        <time>2013-05-26T04:59:03Z</time>
      </trkpt>
      <trkpt lat="12.900065146386623" lon="101.056171339005232">
        <ele>113.09228515625</ele>
        <time>2013-05-26T05:00:01Z</time>
      </trkpt>
      <trkpt lat="12.900540316477418" lon="101.056894278153777">
        <ele>112.1309814453125</ele>
        <time>2013-05-26T05:00:18Z</time>
      </trkpt>
      <trkpt lat="12.904115533456206" lon="101.059451596811414">
        <ele>113.572998046875</ele>
        <time>2013-05-26T05:01:44Z</time>
      </trkpt>
      <trkpt lat="12.905000997707248" lon="101.060829078778625">
        <ele>109.7276611328125</ele>
        <time>2013-05-26T05:02:14Z</time>
      </trkpt>
      <trkpt lat="12.905479269102216" lon="101.061251107603312">
        <ele>110.208251953125</ele>
        <time>2013-05-26T05:02:32Z</time>
      </trkpt>
      <trkpt lat="12.907457482069731" lon="101.062078988179564">
        <ele>112.611572265625</ele>
        <time>2013-05-26T05:03:22Z</time>
      </trkpt>
      <trkpt lat="12.907937094569206" lon="101.062251068651676">
        <ele>111.1695556640625</ele>
        <time>2013-05-26T05:03:35Z</time>
      </trkpt>
      <trkpt lat="12.907919241115451" lon="101.06058013625443">
        <ele>110.208251953125</ele>
        <time>2013-05-26T05:04:18Z</time>
      </trkpt>
      <trkpt lat="12.907316917553544" lon="101.059610517695546">
        <ele>112.611572265625</ele>
        <time>2013-05-26T05:04:52Z</time>
      </trkpt>
      <trkpt lat="12.907360671088099" lon="101.05832900851965">
        <ele>113.572998046875</ele>
        <time>2013-05-26T05:05:29Z</time>
      </trkpt>
      <trkpt lat="12.907181633636355" lon="101.057696426287293">
        <ele>114.0535888671875</ele>
        <time>2013-05-26T05:05:48Z</time>
      </trkpt>
      <trkpt lat="12.907050289213657" lon="101.054944396018982">
        <ele>113.572998046875</ele>
        <time>2013-05-26T05:07:02Z</time>
      </trkpt>
      <trkpt lat="12.906812746077776" lon="101.053666993975639">
        <ele>115.9761962890625</ele>
        <time>2013-05-26T05:07:43Z</time>
      </trkpt>
      <trkpt lat="12.906969236209989" lon="101.05306844227016">
        <ele>117.418212890625</ele>
        <time>2013-05-26T05:07:59Z</time>
      </trkpt>
      <trkpt lat="12.907608523964882" lon="101.051353504881263">
        <ele>116.456787109375</ele>
        <time>2013-05-26T05:08:38Z</time>
      </trkpt>
      <trkpt lat="12.907787561416626" lon="101.050318004563451">
        <ele>116.9375</ele>
        <time>2013-05-26T05:09:09Z</time>
      </trkpt>
      <trkpt lat="12.907544989138842" lon="101.046487307175994">
        <ele>120.3021240234375</ele>
        <time>2013-05-26T05:13:16Z</time>
      </trkpt>
      <trkpt lat="12.9077716358006" lon="101.049810396507382">
        <ele>114.0535888671875</ele>
        <time>2013-05-26T05:14:43Z</time>
      </trkpt>
      <trkpt lat="12.908204225823283" lon="101.0497956443578">
        <ele>118.860107421875</ele>
        <time>2013-05-26T05:15:41Z</time>
      </trkpt>
      <trkpt lat="12.908415868878365" lon="101.049698749557137">
        <ele>119.3408203125</ele>
        <time>2013-05-26T05:15:53Z</time>
      </trkpt>
      <trkpt lat="12.908346969634295" lon="101.049108328297734">
        <ele>121.2635498046875</ele>
        <time>2013-05-26T05:16:17Z</time>
      </trkpt>
      <trkpt lat="12.908410420641303" lon="101.04853006079793">
        <ele>121.2635498046875</ele>
        <time>2013-05-26T05:16:41Z</time>
      </trkpt>
      <trkpt lat="12.910121418535709" lon="101.048126053065062">
        <ele>119.8214111328125</ele>
        <time>2013-05-26T05:17:29Z</time>
      </trkpt>
      <trkpt lat="12.910254942253232" lon="101.045594802126288">
        <ele>130.39599609375</ele>
        <time>2013-05-26T05:19:02Z</time>
      </trkpt>
      <trkpt lat="12.91112557053566" lon="101.045327670872211">
        <ele>131.3572998046875</ele>
        <time>2013-05-26T05:19:32Z</time>
      </trkpt>
      <trkpt lat="12.912883255630732" lon="101.042506154626608">
        <ele>141.4510498046875</ele>
        <time>2013-05-26T05:21:07Z</time>
      </trkpt>
      <trkpt lat="12.913183495402336" lon="101.041890336200595">
        <ele>140.970458984375</ele>
        <time>2013-05-26T05:21:32Z</time>
      </trkpt>
      <trkpt lat="12.913453644141555" lon="101.041412735357881">
        <ele>136.6446533203125</ele>
        <time>2013-05-26T05:21:52Z</time>
      </trkpt>
      <trkpt lat="12.913661850616336" lon="101.040926668792963">
        <ele>136.1639404296875</ele>
        <time>2013-05-26T05:22:08Z</time>
      </trkpt>
      <trkpt lat="12.913797637447715" lon="101.040324261412024">
        <ele>141.9317626953125</ele>
        <time>2013-05-26T05:22:25Z</time>
      </trkpt>
      <trkpt lat="12.913995198905468" lon="101.039696205407381">
        <ele>143.8543701171875</ele>
        <time>2013-05-26T05:22:42Z</time>
      </trkpt>
      <trkpt lat="12.913994276896119" lon="101.039396887645125">
        <ele>146.2578125</ele>
        <time>2013-05-26T05:22:53Z</time>
      </trkpt>
      <trkpt lat="12.913621533662081" lon="101.039137970656157">
        <ele>150.10302734375</ele>
        <time>2013-05-26T05:23:10Z</time>
      </trkpt>
      <trkpt lat="12.913279132917523" lon="101.038835886865854">
        <ele>152.9869384765625</ele>
        <time>2013-05-26T05:23:27Z</time>
      </trkpt>
      <trkpt lat="12.912749480456114" lon="101.038343366235495">
        <ele>154.428955078125</ele>
        <time>2013-05-26T05:23:48Z</time>
      </trkpt>
      <trkpt lat="12.912690723314881" lon="101.038016052916646">
        <ele>151.064208984375</ele>
        <time>2013-05-26T05:23:59Z</time>
      </trkpt>
      <trkpt lat="12.913872739300132" lon="101.035825023427606">
        <ele>142.4124755859375</ele>
        <time>2013-05-26T05:25:07Z</time>
      </trkpt>
      <trkpt lat="12.914106342941523" lon="101.034679552540183">
        <ele>142.89306640625</ele>
        <time>2013-05-26T05:25:45Z</time>
      </trkpt>
      <trkpt lat="12.915351893752813" lon="101.034530773758888">
        <ele>144.8157958984375</ele>
        <time>2013-05-26T05:26:23Z</time>
      </trkpt>
      <trkpt lat="12.916102409362793" lon="101.033999277278781">
        <ele>146.7384033203125</ele>
        <time>2013-05-26T05:27:32Z</time>
      </trkpt>
      <trkpt lat="12.916689226403832" lon="101.034078234806657">
        <ele>147.218994140625</ele>
        <time>2013-05-26T05:27:48Z</time>
      </trkpt>
      <trkpt lat="12.917709136381745" lon="101.034031882882118">
        <ele>145.29638671875</ele>
        <time>2013-05-26T05:28:35Z</time>
      </trkpt>
      <trkpt lat="12.920033438131213" lon="101.03412626311183">
        <ele>140.4898681640625</ele>
        <time>2013-05-26T05:29:43Z</time>
      </trkpt>
      <trkpt lat="12.921229116618633" lon="101.032494558021426">
        <ele>146.2578125</ele>
        <time>2013-05-26T05:30:52Z</time>
      </trkpt>
      <trkpt lat="12.921910481527448" lon="101.032891944050789">
        <ele>149.622314453125</ele>
        <time>2013-05-26T05:31:36Z</time>
      </trkpt>
      <trkpt lat="12.922287499532104" lon="101.033289330080152">
        <ele>148.6610107421875</ele>
        <time>2013-05-26T05:31:59Z</time>
      </trkpt>
      <trkpt lat="12.922689076513052" lon="101.033508433029056">
        <ele>147.69970703125</ele>
        <time>2013-05-26T05:32:14Z</time>
      </trkpt>
      <trkpt lat="12.923489967361093" lon="101.033532153815031">
        <ele>149.622314453125</ele>
        <time>2013-05-26T05:32:43Z</time>
      </trkpt>
      <trkpt lat="12.923930771648884" lon="101.033615469932556">
        <ele>150.5836181640625</ele>
        <time>2013-05-26T05:32:58Z</time>
      </trkpt>
      <trkpt lat="12.924029845744371" lon="101.033428134396672">
        <ele>150.5836181640625</ele>
        <time>2013-05-26T05:33:06Z</time>
      </trkpt>
      <trkpt lat="12.924346346408129" lon="101.033110711723566">
        <ele>150.10302734375</ele>
        <time>2013-05-26T05:33:21Z</time>
      </trkpt>
      <trkpt lat="12.924643401056528" lon="101.032001618295908">
        <ele>145.29638671875</ele>
        <time>2013-05-26T05:33:55Z</time>
      </trkpt>
      <trkpt lat="12.924712635576725" lon="101.028588591143489">
        <ele>142.4124755859375</ele>
        <time>2013-05-26T05:35:42Z</time>
      </trkpt>
      <trkpt lat="12.925287717953324" lon="101.027045482769608">
        <ele>141.4510498046875</ele>
        <time>2013-05-26T05:36:20Z</time>
      </trkpt>
      <trkpt lat="12.925216471776366" lon="101.025969497859478">
        <ele>138.0865478515625</ele>
        <time>2013-05-26T05:36:40Z</time>
      </trkpt>
      <trkpt lat="12.92598232626915" lon="101.025004656985402">
        <ele>136.1639404296875</ele>
        <time>2013-05-26T05:37:23Z</time>
      </trkpt>
      <trkpt lat="12.925359131768346" lon="101.024564104154706">
        <ele>137.6058349609375</ele>
        <time>2013-05-26T05:37:44Z</time>
      </trkpt>
      <trkpt lat="12.924805926159024" lon="101.024392107501626">
        <ele>137.6058349609375</ele>
        <time>2013-05-26T05:38:00Z</time>
      </trkpt>
      <trkpt lat="12.924675336107612" lon="101.024166969582438">
        <ele>138.0865478515625</ele>
        <time>2013-05-26T05:38:09Z</time>
      </trkpt>
      <trkpt lat="12.924686903133988" lon="101.023572357371449">
        <ele>139.0478515625</ele>
        <time>2013-05-26T05:38:29Z</time>
      </trkpt>
      <trkpt lat="12.924710372462869" lon="101.023109676316381">
        <ele>139.0478515625</ele>
        <time>2013-05-26T05:38:46Z</time>
      </trkpt>
      <trkpt lat="12.925356198102236" lon="101.023083524778485">
        <ele>140.4898681640625</ele>
        <time>2013-05-26T05:39:11Z</time>
      </trkpt>
      <trkpt lat="12.925739167258143" lon="101.022878251969814">
        <ele>140.4898681640625</ele>
        <time>2013-05-26T05:39:27Z</time>
      </trkpt>
      <trkpt lat="12.925562728196383" lon="101.022427305579185">
        <ele>143.3736572265625</ele>
        <time>2013-05-26T05:40:04Z</time>
      </trkpt>
      <trkpt lat="12.924402840435505" lon="101.022603074088693">
        <ele>136.1639404296875</ele>
        <time>2013-05-26T05:40:34Z</time>
      </trkpt>
      <trkpt lat="12.924182480201125" lon="101.022389838472009">
        <ele>135.68310546875</ele>
        <time>2013-05-26T05:40:40Z</time>
      </trkpt>
      <trkpt lat="12.923060562461615" lon="101.019476037472486">
        <ele>123.1861572265625</ele>
        <time>2013-05-26T05:41:28Z</time>
      </trkpt>
      <trkpt lat="12.923160223290324" lon="101.019166074693203">
        <ele>121.744140625</ele>
        <time>2013-05-26T05:41:36Z</time>
      </trkpt>
      <trkpt lat="12.923417799174786" lon="101.01910287514329">
        <ele>120.7828369140625</ele>
        <time>2013-05-26T05:41:44Z</time>
      </trkpt>
      <trkpt lat="12.923498097807169" lon="101.018930962309241">
        <ele>123.1861572265625</ele>
        <time>2013-05-26T05:42:11Z</time>
      </trkpt>
      <trkpt lat="12.924008723348379" lon="101.018632231280208">
        <ele>122.7054443359375</ele>
        <time>2013-05-26T05:42:57Z</time>
      </trkpt>
      <trkpt lat="12.924212068319321" lon="101.018710099160671">
        <ele>127.511962890625</ele>
        <time>2013-05-26T05:43:14Z</time>
      </trkpt>
    </trkseg>
  </trk>

</gpx>
